sensor_id;sensor_type;location;lat;lon;timestamp;P1;durP1;ratioP1;P2;durP2;ratioP2
19436;SDS011;9854;50.968;4.168;2023-04-29T00:00:53;56.58;;;32.65;;
19436;SDS011;9854;50.968;4.168;2023-04-29T00:03:19;54.25;;;34.10;;
19436;SDS011;9854;50.968;4.168;2023-04-29T00:05:44;56.38;;;34.20;;
19436;SDS011;9854;50.968;4.168;2023-04-29T00:08:10;57.00;;;34.08;;
19436;SDS011;9854;50.968;4.168;2023-04-29T00:10:36;55.78;;;33.25;;
19436;SDS011;9854;50.968;4.168;2023-04-29T00:13:01;52.08;;;32.60;;
19436;SDS011;9854;50.968;4.168;2023-04-29T00:15:27;57.22;;;34.08;;
19436;SDS011;9854;50.968;4.168;2023-04-29T00:17:53;58.25;;;35.10;;
19436;SDS011;9854;50.968;4.168;2023-04-29T00:20:19;55.97;;;33.00;;
19436;SDS011;9854;50.968;4.168;2023-04-29T00:22:45;54.30;;;32.78;;
19436;SDS011;9854;50.968;4.168;2023-04-29T00:25:11;57.47;;;32.40;;
19436;SDS011;9854;50.968;4.168;2023-04-29T00:27:37;53.17;;;33.13;;
19436;SDS011;9854;50.968;4.168;2023-04-29T00:30:04;60.80;;;32.50;;
19436;SDS011;9854;50.968;4.168;2023-04-29T00:32:31;58.92;;;33.92;;
19436;SDS011;9854;50.968;4.168;2023-04-29T00:34:56;54.53;;;33.20;;
19436;SDS011;9854;50.968;4.168;2023-04-29T00:37:22;55.97;;;33.85;;
19436;SDS011;9854;50.968;4.168;2023-04-29T00:39:47;55.95;;;33.97;;
19436;SDS011;9854;50.968;4.168;2023-04-29T00:42:13;55.13;;;33.95;;
19436;SDS011;9854;50.968;4.168;2023-04-29T00:44:39;57.60;;;34.53;;
19436;SDS011;9854;50.968;4.168;2023-04-29T00:47:05;56.20;;;33.80;;
19436;SDS011;9854;50.968;4.168;2023-04-29T00:49:35;56.97;;;34.33;;
19436;SDS011;9854;50.968;4.168;2023-04-29T00:52:04;62.10;;;35.78;;
19436;SDS011;9854;50.968;4.168;2023-04-29T00:54:32;62.55;;;35.80;;
19436;SDS011;9854;50.968;4.168;2023-04-29T00:56:58;60.90;;;34.58;;
19436;SDS011;9854;50.968;4.168;2023-04-29T00:59:27;63.45;;;35.67;;
19436;SDS011;9854;50.968;4.168;2023-04-29T01:01:57;61.97;;;35.17;;
19436;SDS011;9854;50.968;4.168;2023-04-29T01:04:24;66.85;;;35.85;;
19436;SDS011;9854;50.968;4.168;2023-04-29T01:12:14;59.40;;;35.13;;
19436;SDS011;9854;50.968;4.168;2023-04-29T01:14:51;62.88;;;35.78;;
19436;SDS011;9854;50.968;4.168;2023-04-29T01:17:27;57.45;;;36.60;;
19436;SDS011;9854;50.968;4.168;2023-04-29T01:19:58;71.72;;;37.88;;
19436;SDS011;9854;50.968;4.168;2023-04-29T01:22:25;63.10;;;37.83;;
19436;SDS011;9854;50.968;4.168;2023-04-29T01:24:51;63.15;;;37.00;;
19436;SDS011;9854;50.968;4.168;2023-04-29T01:41:34;53.25;;;33.88;;
19436;SDS011;9854;50.968;4.168;2023-04-29T01:44:07;59.28;;;35.80;;
19436;SDS011;9854;50.968;4.168;2023-04-29T01:46:41;64.20;;;37.58;;
19436;SDS011;9854;50.968;4.168;2023-04-29T01:49:08;58.60;;;36.17;;
19436;SDS011;9854;50.968;4.168;2023-04-29T01:51:33;64.25;;;36.85;;
19436;SDS011;9854;50.968;4.168;2023-04-29T01:53:59;57.42;;;36.92;;
19436;SDS011;9854;50.968;4.168;2023-04-29T01:56:25;56.10;;;35.58;;
19436;SDS011;9854;50.968;4.168;2023-04-29T01:58:50;57.22;;;35.97;;
19436;SDS011;9854;50.968;4.168;2023-04-29T02:01:16;52.53;;;36.83;;
19436;SDS011;9854;50.968;4.168;2023-04-29T02:03:41;53.33;;;35.90;;
19436;SDS011;9854;50.968;4.168;2023-04-29T02:06:07;48.67;;;34.28;;
19436;SDS011;9854;50.968;4.168;2023-04-29T02:08:33;45.50;;;32.97;;
19436;SDS011;9854;50.968;4.168;2023-04-29T02:10:58;47.10;;;32.50;;
19436;SDS011;9854;50.968;4.168;2023-04-29T02:13:24;41.45;;;31.02;;
19436;SDS011;9854;50.968;4.168;2023-04-29T02:15:50;40.00;;;30.00;;
19436;SDS011;9854;50.968;4.168;2023-04-29T02:18:16;43.33;;;30.23;;
19436;SDS011;9854;50.968;4.168;2023-04-29T02:20:42;37.63;;;26.15;;
19436;SDS011;9854;50.968;4.168;2023-04-29T02:23:08;31.05;;;25.17;;
19436;SDS011;9854;50.968;4.168;2023-04-29T02:25:34;32.50;;;25.25;;
19436;SDS011;9854;50.968;4.168;2023-04-29T02:28:00;38.83;;;26.40;;
19436;SDS011;9854;50.968;4.168;2023-04-29T02:30:25;35.00;;;26.17;;
19436;SDS011;9854;50.968;4.168;2023-04-29T02:32:51;31.13;;;25.67;;
19436;SDS011;9854;50.968;4.168;2023-04-29T02:35:17;35.25;;;26.80;;
19436;SDS011;9854;50.968;4.168;2023-04-29T02:37:43;34.50;;;27.25;;
19436;SDS011;9854;50.968;4.168;2023-04-29T02:40:09;38.55;;;27.52;;
19436;SDS011;9854;50.968;4.168;2023-04-29T02:42:35;35.67;;;25.58;;
19436;SDS011;9854;50.968;4.168;2023-04-29T02:45:01;37.50;;;25.67;;
19436;SDS011;9854;50.968;4.168;2023-04-29T02:47:28;33.55;;;25.02;;
19436;SDS011;9854;50.968;4.168;2023-04-29T02:49:53;34.60;;;24.40;;
19436;SDS011;9854;50.968;4.168;2023-04-29T02:52:19;38.03;;;23.33;;
19436;SDS011;9854;50.968;4.168;2023-04-29T02:54:45;36.90;;;23.67;;
19436;SDS011;9854;50.968;4.168;2023-04-29T02:57:10;32.63;;;22.75;;
19436;SDS011;9854;50.968;4.168;2023-04-29T02:59:36;32.83;;;21.83;;
19436;SDS011;9854;50.968;4.168;2023-04-29T03:02:02;32.25;;;21.25;;
19436;SDS011;9854;50.968;4.168;2023-04-29T03:04:28;32.45;;;21.15;;
19436;SDS011;9854;50.968;4.168;2023-04-29T03:06:54;25.05;;;19.92;;
19436;SDS011;9854;50.968;4.168;2023-04-29T03:09:21;24.02;;;18.63;;
19436;SDS011;9854;50.968;4.168;2023-04-29T03:11:47;24.75;;;20.25;;
19436;SDS011;9854;50.968;4.168;2023-04-29T03:14:13;27.13;;;19.17;;
19436;SDS011;9854;50.968;4.168;2023-04-29T03:16:39;28.83;;;19.48;;
19436;SDS011;9854;50.968;4.168;2023-04-29T03:19:04;29.52;;;21.20;;
19436;SDS011;9854;50.968;4.168;2023-04-29T03:21:30;30.58;;;22.35;;
19436;SDS011;9854;50.968;4.168;2023-04-29T03:23:56;31.77;;;22.40;;
19436;SDS011;9854;50.968;4.168;2023-04-29T03:26:22;33.78;;;22.73;;
19436;SDS011;9854;50.968;4.168;2023-04-29T03:28:49;33.10;;;22.38;;
19436;SDS011;9854;50.968;4.168;2023-04-29T03:31:15;31.17;;;22.83;;
19436;SDS011;9854;50.968;4.168;2023-04-29T03:33:41;40.03;;;24.63;;
19436;SDS011;9854;50.968;4.168;2023-04-29T03:36:06;32.95;;;24.23;;
19436;SDS011;9854;50.968;4.168;2023-04-29T03:38:33;34.42;;;24.08;;
19436;SDS011;9854;50.968;4.168;2023-04-29T03:40:59;41.40;;;24.98;;
19436;SDS011;9854;50.968;4.168;2023-04-29T03:43:24;38.10;;;27.00;;
19436;SDS011;9854;50.968;4.168;2023-04-29T03:45:50;45.85;;;26.50;;
19436;SDS011;9854;50.968;4.168;2023-04-29T03:48:16;43.17;;;25.85;;
19436;SDS011;9854;50.968;4.168;2023-04-29T03:50:43;43.83;;;27.52;;
19436;SDS011;9854;50.968;4.168;2023-04-29T03:53:09;40.58;;;26.30;;
19436;SDS011;9854;50.968;4.168;2023-04-29T03:55:36;50.38;;;27.58;;
19436;SDS011;9854;50.968;4.168;2023-04-29T03:58:01;39.55;;;27.17;;
19436;SDS011;9854;50.968;4.168;2023-04-29T04:00:28;44.40;;;27.17;;
19436;SDS011;9854;50.968;4.168;2023-04-29T04:02:55;46.13;;;27.80;;
19436;SDS011;9854;50.968;4.168;2023-04-29T04:05:22;43.15;;;27.67;;
19436;SDS011;9854;50.968;4.168;2023-04-29T04:07:49;45.55;;;28.27;;
19436;SDS011;9854;50.968;4.168;2023-04-29T04:10:16;39.55;;;26.15;;
19436;SDS011;9854;50.968;4.168;2023-04-29T04:12:42;42.80;;;27.48;;
19436;SDS011;9854;50.968;4.168;2023-04-29T04:15:08;41.10;;;26.27;;
19436;SDS011;9854;50.968;4.168;2023-04-29T04:17:34;44.25;;;26.58;;
19436;SDS011;9854;50.968;4.168;2023-04-29T04:20:00;38.35;;;26.38;;
19436;SDS011;9854;50.968;4.168;2023-04-29T04:22:25;42.72;;;25.73;;
19436;SDS011;9854;50.968;4.168;2023-04-29T04:24:53;41.30;;;26.75;;
19436;SDS011;9854;50.968;4.168;2023-04-29T04:27:19;41.55;;;25.40;;
19436;SDS011;9854;50.968;4.168;2023-04-29T04:29:45;46.42;;;25.77;;
19436;SDS011;9854;50.968;4.168;2023-04-29T04:32:10;38.17;;;26.40;;
19436;SDS011;9854;50.968;4.168;2023-04-29T04:34:36;37.58;;;26.77;;
19436;SDS011;9854;50.968;4.168;2023-04-29T04:37:03;46.25;;;26.25;;
19436;SDS011;9854;50.968;4.168;2023-04-29T04:39:30;34.90;;;25.23;;
19436;SDS011;9854;50.968;4.168;2023-04-29T04:41:56;40.25;;;25.52;;
19436;SDS011;9854;50.968;4.168;2023-04-29T04:44:22;39.55;;;25.08;;
19436;SDS011;9854;50.968;4.168;2023-04-29T04:46:47;45.40;;;25.50;;
19436;SDS011;9854;50.968;4.168;2023-04-29T04:49:15;33.58;;;24.17;;
19436;SDS011;9854;50.968;4.168;2023-04-29T04:51:42;36.35;;;24.50;;
19436;SDS011;9854;50.968;4.168;2023-04-29T04:54:14;34.25;;;25.02;;
19436;SDS011;9854;50.968;4.168;2023-04-29T04:56:40;39.88;;;24.80;;
19436;SDS011;9854;50.968;4.168;2023-04-29T04:59:05;36.00;;;23.95;;
19436;SDS011;9854;50.968;4.168;2023-04-29T05:01:31;34.53;;;23.02;;
19436;SDS011;9854;50.968;4.168;2023-04-29T05:03:56;41.95;;;24.05;;
19436;SDS011;9854;50.968;4.168;2023-04-29T05:06:22;31.80;;;23.08;;
19436;SDS011;9854;50.968;4.168;2023-04-29T05:08:48;35.63;;;22.58;;
19436;SDS011;9854;50.968;4.168;2023-04-29T05:11:17;31.23;;;22.17;;
19436;SDS011;9854;50.968;4.168;2023-04-29T05:13:43;34.80;;;22.33;;
19436;SDS011;9854;50.968;4.168;2023-04-29T05:16:09;31.02;;;21.25;;
19436;SDS011;9854;50.968;4.168;2023-04-29T05:18:35;30.35;;;22.38;;
19436;SDS011;9854;50.968;4.168;2023-04-29T05:21:01;33.30;;;21.55;;
19436;SDS011;9854;50.968;4.168;2023-04-29T05:23:27;28.58;;;20.25;;
19436;SDS011;9854;50.968;4.168;2023-04-29T05:25:53;27.33;;;19.98;;
19436;SDS011;9854;50.968;4.168;2023-04-29T05:28:18;32.45;;;19.92;;
19436;SDS011;9854;50.968;4.168;2023-04-29T05:30:44;28.20;;;18.67;;
19436;SDS011;9854;50.968;4.168;2023-04-29T05:33:11;29.05;;;19.33;;
19436;SDS011;9854;50.968;4.168;2023-04-29T05:35:37;26.83;;;18.75;;
19436;SDS011;9854;50.968;4.168;2023-04-29T05:38:03;27.33;;;18.23;;
19436;SDS011;9854;50.968;4.168;2023-04-29T05:40:28;28.38;;;17.88;;
19436;SDS011;9854;50.968;4.168;2023-04-29T05:42:54;23.23;;;18.20;;
19436;SDS011;9854;50.968;4.168;2023-04-29T05:45:19;22.45;;;17.17;;
19436;SDS011;9854;50.968;4.168;2023-04-29T05:47:45;27.05;;;16.77;;
19436;SDS011;9854;50.968;4.168;2023-04-29T05:50:11;29.97;;;18.00;;
19436;SDS011;9854;50.968;4.168;2023-04-29T05:52:37;23.00;;;17.48;;
19436;SDS011;9854;50.968;4.168;2023-04-29T05:55:03;28.02;;;18.05;;
19436;SDS011;9854;50.968;4.168;2023-04-29T05:57:29;24.48;;;18.85;;
19436;SDS011;9854;50.968;4.168;2023-04-29T05:59:55;26.05;;;18.30;;
19436;SDS011;9854;50.968;4.168;2023-04-29T06:02:21;28.00;;;18.30;;
19436;SDS011;9854;50.968;4.168;2023-04-29T06:04:47;29.13;;;19.58;;
19436;SDS011;9854;50.968;4.168;2023-04-29T06:07:13;24.73;;;19.42;;
19436;SDS011;9854;50.968;4.168;2023-04-29T06:09:38;27.33;;;19.08;;
19436;SDS011;9854;50.968;4.168;2023-04-29T06:12:04;24.52;;;18.75;;
19436;SDS011;9854;50.968;4.168;2023-04-29T06:14:30;26.98;;;18.77;;
19436;SDS011;9854;50.968;4.168;2023-04-29T06:16:56;24.13;;;18.40;;
19436;SDS011;9854;50.968;4.168;2023-04-29T06:19:21;25.60;;;18.48;;
19436;SDS011;9854;50.968;4.168;2023-04-29T06:21:48;25.30;;;18.10;;
19436;SDS011;9854;50.968;4.168;2023-04-29T06:24:14;27.17;;;18.00;;
19436;SDS011;9854;50.968;4.168;2023-04-29T06:26:40;21.98;;;17.67;;
19436;SDS011;9854;50.968;4.168;2023-04-29T06:29:05;28.70;;;19.65;;
19436;SDS011;9854;50.968;4.168;2023-04-29T06:31:32;25.38;;;19.88;;
19436;SDS011;9854;50.968;4.168;2023-04-29T06:33:58;26.15;;;19.48;;
19436;SDS011;9854;50.968;4.168;2023-04-29T06:36:23;27.70;;;20.27;;
19436;SDS011;9854;50.968;4.168;2023-04-29T06:38:49;25.45;;;20.80;;
19436;SDS011;9854;50.968;4.168;2023-04-29T06:41:15;29.48;;;21.15;;
19436;SDS011;9854;50.968;4.168;2023-04-29T06:43:40;31.88;;;21.55;;
19436;SDS011;9854;50.968;4.168;2023-04-29T06:46:07;30.15;;;21.70;;
19436;SDS011;9854;50.968;4.168;2023-04-29T06:48:33;29.38;;;20.98;;
19436;SDS011;9854;50.968;4.168;2023-04-29T06:50:58;32.88;;;21.65;;
19436;SDS011;9854;50.968;4.168;2023-04-29T06:53:24;28.55;;;22.55;;
19436;SDS011;9854;50.968;4.168;2023-04-29T06:55:50;32.30;;;21.77;;
19436;SDS011;9854;50.968;4.168;2023-04-29T06:58:16;29.70;;;21.75;;
19436;SDS011;9854;50.968;4.168;2023-04-29T07:00:43;38.15;;;22.45;;
19436;SDS011;9854;50.968;4.168;2023-04-29T07:03:13;30.50;;;21.65;;
19436;SDS011;9854;50.968;4.168;2023-04-29T07:05:39;30.65;;;22.48;;
19436;SDS011;9854;50.968;4.168;2023-04-29T07:08:09;29.00;;;20.92;;
19436;SDS011;9854;50.968;4.168;2023-04-29T07:10:36;34.08;;;22.98;;
19436;SDS011;9854;50.968;4.168;2023-04-29T07:13:02;32.75;;;22.75;;
19436;SDS011;9854;50.968;4.168;2023-04-29T07:15:28;34.97;;;23.02;;
19436;SDS011;9854;50.968;4.168;2023-04-29T07:17:54;32.88;;;23.08;;
19436;SDS011;9854;50.968;4.168;2023-04-29T07:20:20;34.75;;;22.73;;
19436;SDS011;9854;50.968;4.168;2023-04-29T07:22:46;30.40;;;23.25;;
19436;SDS011;9854;50.968;4.168;2023-04-29T07:25:12;32.17;;;24.98;;
19436;SDS011;9854;50.968;4.168;2023-04-29T07:27:38;35.95;;;25.02;;
19436;SDS011;9854;50.968;4.168;2023-04-29T07:30:04;29.73;;;24.10;;
19436;SDS011;9854;50.968;4.168;2023-04-29T07:32:31;42.22;;;26.55;;
19436;SDS011;9854;50.968;4.168;2023-04-29T07:34:57;38.45;;;25.38;;
19436;SDS011;9854;50.968;4.168;2023-04-29T07:37:23;37.92;;;24.92;;
19436;SDS011;9854;50.968;4.168;2023-04-29T07:39:49;37.08;;;25.02;;
19436;SDS011;9854;50.968;4.168;2023-04-29T07:42:15;35.63;;;24.85;;
19436;SDS011;9854;50.968;4.168;2023-04-29T07:44:41;33.20;;;24.13;;
19436;SDS011;9854;50.968;4.168;2023-04-29T07:47:09;31.35;;;23.13;;
19436;SDS011;9854;50.968;4.168;2023-04-29T07:49:35;32.03;;;24.60;;
19436;SDS011;9854;50.968;4.168;2023-04-29T07:52:01;35.30;;;22.92;;
19436;SDS011;9854;50.968;4.168;2023-04-29T07:54:28;30.73;;;23.45;;
19436;SDS011;9854;50.968;4.168;2023-04-29T07:56:56;30.70;;;22.77;;
19436;SDS011;9854;50.968;4.168;2023-04-29T07:59:22;35.07;;;24.00;;
19436;SDS011;9854;50.968;4.168;2023-04-29T08:01:48;32.33;;;23.05;;
19436;SDS011;9854;50.968;4.168;2023-04-29T08:04:13;30.10;;;21.65;;
19436;SDS011;9854;50.968;4.168;2023-04-29T08:06:39;30.13;;;22.88;;
19436;SDS011;9854;50.968;4.168;2023-04-29T08:09:05;36.25;;;23.58;;
19436;SDS011;9854;50.968;4.168;2023-04-29T08:11:31;32.83;;;21.55;;
19436;SDS011;9854;50.968;4.168;2023-04-29T08:13:57;37.47;;;22.80;;
19436;SDS011;9854;50.968;4.168;2023-04-29T08:16:24;34.35;;;22.00;;
19436;SDS011;9854;50.968;4.168;2023-04-29T08:18:51;32.28;;;21.70;;
19436;SDS011;9854;50.968;4.168;2023-04-29T08:21:17;28.52;;;22.02;;
19436;SDS011;9854;50.968;4.168;2023-04-29T08:23:43;28.60;;;20.05;;
19436;SDS011;9854;50.968;4.168;2023-04-29T08:26:09;30.88;;;20.60;;
19436;SDS011;9854;50.968;4.168;2023-04-29T08:28:36;31.98;;;20.05;;
19436;SDS011;9854;50.968;4.168;2023-04-29T08:31:02;29.65;;;20.23;;
19436;SDS011;9854;50.968;4.168;2023-04-29T08:33:31;25.45;;;18.88;;
19436;SDS011;9854;50.968;4.168;2023-04-29T08:36:00;30.95;;;20.00;;
19436;SDS011;9854;50.968;4.168;2023-04-29T08:38:30;24.40;;;18.73;;
19436;SDS011;9854;50.968;4.168;2023-04-29T08:40:56;29.15;;;19.70;;
19436;SDS011;9854;50.968;4.168;2023-04-29T08:43:22;27.50;;;19.70;;
19436;SDS011;9854;50.968;4.168;2023-04-29T08:45:48;25.83;;;18.05;;
19436;SDS011;9854;50.968;4.168;2023-04-29T08:48:17;21.58;;;18.15;;
19436;SDS011;9854;50.968;4.168;2023-04-29T08:50:43;22.23;;;18.30;;
19436;SDS011;9854;50.968;4.168;2023-04-29T08:53:10;24.73;;;18.45;;
19436;SDS011;9854;50.968;4.168;2023-04-29T08:55:40;26.75;;;18.38;;
19436;SDS011;9854;50.968;4.168;2023-04-29T08:58:06;23.10;;;17.02;;
19436;SDS011;9854;50.968;4.168;2023-04-29T09:00:33;24.40;;;17.00;;
19436;SDS011;9854;50.968;4.168;2023-04-29T09:02:59;24.25;;;17.63;;
19436;SDS011;9854;50.968;4.168;2023-04-29T09:05:29;22.65;;;17.15;;
19436;SDS011;9854;50.968;4.168;2023-04-29T09:07:57;24.38;;;16.85;;
19436;SDS011;9854;50.968;4.168;2023-04-29T09:10:27;22.92;;;16.27;;
19436;SDS011;9854;50.968;4.168;2023-04-29T09:12:55;24.58;;;17.23;;
19436;SDS011;9854;50.968;4.168;2023-04-29T09:15:22;23.58;;;17.27;;
19436;SDS011;9854;50.968;4.168;2023-04-29T09:17:48;26.92;;;17.05;;
19436;SDS011;9854;50.968;4.168;2023-04-29T09:22:46;32.45;;;17.58;;
19436;SDS011;9854;50.968;4.168;2023-04-29T09:25:16;26.55;;;18.02;;
19436;SDS011;9854;50.968;4.168;2023-04-29T09:27:42;27.35;;;17.45;;
19436;SDS011;9854;50.968;4.168;2023-04-29T09:30:08;25.00;;;16.60;;
19436;SDS011;9854;50.968;4.168;2023-04-29T09:32:34;22.25;;;16.70;;
19436;SDS011;9854;50.968;4.168;2023-04-29T09:37:48;21.42;;;16.73;;
19436;SDS011;9854;50.968;4.168;2023-04-29T09:40:28;25.73;;;17.17;;
19436;SDS011;9854;50.968;4.168;2023-04-29T09:42:55;22.33;;;17.05;;
19436;SDS011;9854;50.968;4.168;2023-04-29T09:45:33;22.60;;;16.38;;
19436;SDS011;9854;50.968;4.168;2023-04-29T09:48:04;22.58;;;16.80;;
19436;SDS011;9854;50.968;4.168;2023-04-29T09:50:30;23.55;;;16.88;;
19436;SDS011;9854;50.968;4.168;2023-04-29T09:52:57;22.83;;;16.58;;
19436;SDS011;9854;50.968;4.168;2023-04-29T09:55:23;19.05;;;15.95;;
19436;SDS011;9854;50.968;4.168;2023-04-29T09:57:48;21.67;;;17.08;;
19436;SDS011;9854;50.968;4.168;2023-04-29T10:00:14;20.55;;;16.40;;
19436;SDS011;9854;50.968;4.168;2023-04-29T10:02:40;20.48;;;17.17;;
19436;SDS011;9854;50.968;4.168;2023-04-29T10:05:07;19.27;;;16.15;;
19436;SDS011;9854;50.968;4.168;2023-04-29T10:07:34;19.77;;;15.65;;
19436;SDS011;9854;50.968;4.168;2023-04-29T10:10:04;25.48;;;16.92;;
19436;SDS011;9854;50.968;4.168;2023-04-29T10:12:32;18.92;;;16.67;;
19436;SDS011;9854;50.968;4.168;2023-04-29T10:20:23;20.00;;;16.30;;
19436;SDS011;9854;50.968;4.168;2023-04-29T10:22:52;18.58;;;15.38;;
19436;SDS011;9854;50.968;4.168;2023-04-29T10:25:20;24.00;;;16.33;;
19436;SDS011;9854;50.968;4.168;2023-04-29T10:27:47;17.48;;;15.35;;
19436;SDS011;9854;50.968;4.168;2023-04-29T10:30:18;22.33;;;16.13;;
19436;SDS011;9854;50.968;4.168;2023-04-29T10:32:45;18.58;;;15.88;;
19436;SDS011;9854;50.968;4.168;2023-04-29T10:35:12;24.63;;;16.95;;
19436;SDS011;9854;50.968;4.168;2023-04-29T10:37:39;19.63;;;16.55;;
19436;SDS011;9854;50.968;4.168;2023-04-29T10:42:49;19.67;;;17.50;;
19436;SDS011;9854;50.968;4.168;2023-04-29T10:45:20;21.55;;;17.48;;
19436;SDS011;9854;50.968;4.168;2023-04-29T10:53:16;18.45;;;16.55;;
19436;SDS011;9854;50.968;4.168;2023-04-29T10:55:46;20.33;;;17.27;;
19436;SDS011;9854;50.968;4.168;2023-04-29T11:01:00;19.70;;;15.98;;
19436;SDS011;9854;50.968;4.168;2023-04-29T11:06:10;21.75;;;16.50;;
19436;SDS011;9854;50.968;4.168;2023-04-29T11:08:39;18.10;;;16.05;;
19436;SDS011;9854;50.968;4.168;2023-04-29T11:11:05;18.67;;;15.50;;
19436;SDS011;9854;50.968;4.168;2023-04-29T11:13:31;17.42;;;15.60;;
19436;SDS011;9854;50.968;4.168;2023-04-29T11:16:09;15.80;;;14.25;;
19436;SDS011;9854;50.968;4.168;2023-04-29T11:18:36;21.15;;;14.30;;
19436;SDS011;9854;50.968;4.168;2023-04-29T11:21:40;22.60;;;15.30;;
19436;SDS011;9854;50.968;4.168;2023-04-29T11:24:06;20.65;;;14.07;;
19436;SDS011;9854;50.968;4.168;2023-04-29T11:26:35;16.98;;;14.32;;
19436;SDS011;9854;50.968;4.168;2023-04-29T11:29:01;18.73;;;14.20;;
19436;SDS011;9854;50.968;4.168;2023-04-29T11:31:30;16.08;;;13.75;;
19436;SDS011;9854;50.968;4.168;2023-04-29T11:33:56;18.27;;;13.13;;
19436;SDS011;9854;50.968;4.168;2023-04-29T11:36:22;13.40;;;12.10;;
19436;SDS011;9854;50.968;4.168;2023-04-29T11:38:48;16.60;;;14.38;;
19436;SDS011;9854;50.968;4.168;2023-04-29T11:41:14;18.45;;;14.93;;
19436;SDS011;9854;50.968;4.168;2023-04-29T11:43:40;18.92;;;15.07;;
19436;SDS011;9854;50.968;4.168;2023-04-29T11:46:10;15.93;;;14.15;;
19436;SDS011;9854;50.968;4.168;2023-04-29T11:48:44;16.08;;;14.18;;
19436;SDS011;9854;50.968;4.168;2023-04-29T11:51:11;16.52;;;14.15;;
19436;SDS011;9854;50.968;4.168;2023-04-29T11:53:37;15.65;;;14.05;;
19436;SDS011;9854;50.968;4.168;2023-04-29T11:56:03;15.20;;;13.40;;
19436;SDS011;9854;50.968;4.168;2023-04-29T11:58:29;19.27;;;13.65;;
19436;SDS011;9854;50.968;4.168;2023-04-29T12:00:56;16.63;;;13.73;;
19436;SDS011;9854;50.968;4.168;2023-04-29T12:03:22;15.93;;;13.93;;
19436;SDS011;9854;50.968;4.168;2023-04-29T12:05:52;16.25;;;13.43;;
19436;SDS011;9854;50.968;4.168;2023-04-29T12:08:25;15.02;;;13.18;;
19436;SDS011;9854;50.968;4.168;2023-04-29T12:10:53;19.95;;;13.25;;
19436;SDS011;9854;50.968;4.168;2023-04-29T12:13:21;18.45;;;13.10;;
19436;SDS011;9854;50.968;4.168;2023-04-29T12:15:49;17.08;;;13.23;;
19436;SDS011;9854;50.968;4.168;2023-04-29T12:18:16;13.63;;;12.23;;
19436;SDS011;9854;50.968;4.168;2023-04-29T12:20:46;13.90;;;12.13;;
19436;SDS011;9854;50.968;4.168;2023-04-29T12:23:18;16.38;;;12.85;;
19436;SDS011;9854;50.968;4.168;2023-04-29T12:25:54;14.75;;;13.10;;
19436;SDS011;9854;50.968;4.168;2023-04-29T12:28:21;14.65;;;13.05;;
19436;SDS011;9854;50.968;4.168;2023-04-29T12:30:53;16.10;;;12.40;;
19436;SDS011;9854;50.968;4.168;2023-04-29T12:33:19;16.20;;;12.90;;
19436;SDS011;9854;50.968;4.168;2023-04-29T12:35:47;15.95;;;12.68;;
19436;SDS011;9854;50.968;4.168;2023-04-29T12:38:22;12.02;;;10.65;;
19436;SDS011;9854;50.968;4.168;2023-04-29T12:40:58;12.45;;;11.25;;
19436;SDS011;9854;50.968;4.168;2023-04-29T12:43:25;12.23;;;11.13;;
19436;SDS011;9854;50.968;4.168;2023-04-29T12:46:02;12.20;;;10.90;;
19436;SDS011;9854;50.968;4.168;2023-04-29T12:48:31;14.10;;;10.18;;
19436;SDS011;9854;50.968;4.168;2023-04-29T12:50:58;12.50;;;11.20;;
19436;SDS011;9854;50.968;4.168;2023-04-29T12:53:30;12.82;;;10.27;;
19436;SDS011;9854;50.968;4.168;2023-04-29T12:55:56;12.65;;;10.70;;
19436;SDS011;9854;50.968;4.168;2023-04-29T12:58:22;11.18;;;10.05;;
19436;SDS011;9854;50.968;4.168;2023-04-29T13:00:48;13.18;;;10.70;;
19436;SDS011;9854;50.968;4.168;2023-04-29T13:03:14;13.77;;;10.85;;
19436;SDS011;9854;50.968;4.168;2023-04-29T13:05:40;13.98;;;11.60;;
19436;SDS011;9854;50.968;4.168;2023-04-29T13:08:06;16.33;;;10.98;;
19436;SDS011;9854;50.968;4.168;2023-04-29T13:10:33;13.20;;;11.88;;
19436;SDS011;9854;50.968;4.168;2023-04-29T13:12:59;11.70;;;10.45;;
19436;SDS011;9854;50.968;4.168;2023-04-29T13:15:25;12.70;;;10.50;;
19436;SDS011;9854;50.968;4.168;2023-04-29T13:17:51;12.40;;;10.27;;
19436;SDS011;9854;50.968;4.168;2023-04-29T13:20:17;13.18;;;11.73;;
19436;SDS011;9854;50.968;4.168;2023-04-29T13:22:43;15.52;;;12.57;;
19436;SDS011;9854;50.968;4.168;2023-04-29T13:25:09;13.23;;;11.88;;
19436;SDS011;9854;50.968;4.168;2023-04-29T13:27:40;14.35;;;12.48;;
19436;SDS011;9854;50.968;4.168;2023-04-29T13:30:05;14.05;;;12.57;;
19436;SDS011;9854;50.968;4.168;2023-04-29T13:32:32;15.93;;;12.70;;
19436;SDS011;9854;50.968;4.168;2023-04-29T13:34:58;14.27;;;12.77;;
19436;SDS011;9854;50.968;4.168;2023-04-29T13:37:24;13.38;;;12.00;;
19436;SDS011;9854;50.968;4.168;2023-04-29T13:39:50;17.02;;;11.85;;
19436;SDS011;9854;50.968;4.168;2023-04-29T13:42:16;14.35;;;12.85;;
19436;SDS011;9854;50.968;4.168;2023-04-29T13:44:41;14.50;;;12.65;;
19436;SDS011;9854;50.968;4.168;2023-04-29T13:47:11;13.32;;;11.95;;
19436;SDS011;9854;50.968;4.168;2023-04-29T13:49:38;15.30;;;11.25;;
19436;SDS011;9854;50.968;4.168;2023-04-29T13:52:04;11.93;;;10.63;;
19436;SDS011;9854;50.968;4.168;2023-04-29T13:54:30;13.52;;;12.15;;
19436;SDS011;9854;50.968;4.168;2023-04-29T13:56:56;19.80;;;14.40;;
19436;SDS011;9854;50.968;4.168;2023-04-29T13:59:22;15.60;;;14.00;;
19436;SDS011;9854;50.968;4.168;2023-04-29T14:01:47;16.38;;;14.77;;
19436;SDS011;9854;50.968;4.168;2023-04-29T14:04:15;19.77;;;15.88;;
19436;SDS011;9854;50.968;4.168;2023-04-29T14:06:43;20.52;;;14.85;;
19436;SDS011;9854;50.968;4.168;2023-04-29T14:09:09;17.08;;;14.35;;
19436;SDS011;9854;50.968;4.168;2023-04-29T14:11:35;17.38;;;14.85;;
19436;SDS011;9854;50.968;4.168;2023-04-29T14:14:01;17.17;;;14.27;;
19436;SDS011;9854;50.968;4.168;2023-04-29T14:16:27;15.07;;;13.57;;
19436;SDS011;9854;50.968;4.168;2023-04-29T14:18:53;16.73;;;14.00;;
19436;SDS011;9854;50.968;4.168;2023-04-29T14:21:19;20.08;;;14.70;;
19436;SDS011;9854;50.968;4.168;2023-04-29T14:23:51;14.07;;;12.57;;
19436;SDS011;9854;50.968;4.168;2023-04-29T14:26:16;15.35;;;13.80;;
19436;SDS011;9854;50.968;4.168;2023-04-29T14:28:42;15.00;;;12.48;;
19436;SDS011;9854;50.968;4.168;2023-04-29T14:31:08;13.50;;;12.13;;
19436;SDS011;9854;50.968;4.168;2023-04-29T14:33:35;14.02;;;12.52;;
19436;SDS011;9854;50.968;4.168;2023-04-29T14:36:00;14.10;;;12.70;;
19436;SDS011;9854;50.968;4.168;2023-04-29T14:38:26;15.48;;;12.90;;
19436;SDS011;9854;50.968;4.168;2023-04-29T14:40:51;16.58;;;13.43;;
19436;SDS011;9854;50.968;4.168;2023-04-29T14:43:17;13.63;;;12.10;;
19436;SDS011;9854;50.968;4.168;2023-04-29T14:45:43;17.30;;;13.73;;
19436;SDS011;9854;50.968;4.168;2023-04-29T14:48:09;15.63;;;13.95;;
19436;SDS011;9854;50.968;4.168;2023-04-29T14:50:35;13.23;;;12.00;;
19436;SDS011;9854;50.968;4.168;2023-04-29T14:53:01;16.00;;;12.50;;
19436;SDS011;9854;50.968;4.168;2023-04-29T14:55:26;16.80;;;13.18;;
19436;SDS011;9854;50.968;4.168;2023-04-29T14:57:52;14.90;;;13.20;;
19436;SDS011;9854;50.968;4.168;2023-04-29T15:00:18;16.75;;;13.32;;
19436;SDS011;9854;50.968;4.168;2023-04-29T15:02:43;17.80;;;11.95;;
19436;SDS011;9854;50.968;4.168;2023-04-29T15:05:09;14.30;;;12.70;;
19436;SDS011;9854;50.968;4.168;2023-04-29T15:07:35;15.35;;;12.82;;
19436;SDS011;9854;50.968;4.168;2023-04-29T15:10:00;14.18;;;12.27;;
19436;SDS011;9854;50.968;4.168;2023-04-29T15:12:26;18.75;;;13.82;;
19436;SDS011;9854;50.968;4.168;2023-04-29T15:14:52;15.93;;;12.60;;